Time;durP1;ratioP1;P1;durP2;ratioP2;P2;SDS_P1;SDS_P2;PMS_P1;PMS_P2;Temp;Humidity;BMP_temperature;BMP_pressure;BME280_temperature;BME280_humidity;BME280_pressure;Samples;Min_cycle;Max_cycle;Signal;HPM_P1;HPM_P2
2022/01/31 00:00:27;;;;;;;25.65;6.85;;;1.40;80.80;;;;;;5045856;28;20033;-84
2022/01/31 00:02:52;;;;;;;19.08;6.28;;;1.50;81.00;;;;;;5033729;28;20060;-83
2022/01/31 00:05:18;;;;;;;21.60;6.78;;;1.50;80.80;;;;;;5033685;28;20033;-83
2022/01/31 00:07:44;;;;;;;26.08;5.95;;;1.60;80.50;;;;;;5015969;28;20036;-82
2022/01/31 00:10:12;;;;;;;18.42;5.10;;;1.60;80.50;;;;;;5033600;28;20022;-83
2022/01/31 00:12:52;;;;;;;22.45;5.40;;;1.50;81.10;;;;;;5015809;28;20035;-83
2022/01/31 00:15:18;;;;;;;19.52;5.88;;;1.40;82.10;;;;;;5015834;28;20422;-83
2022/01/31 00:17:44;;;;;;;16.38;5.07;;;1.40;82.20;;;;;;5033595;28;20071;-83
2022/01/31 00:20:10;;;;;;;21.25;5.40;;;1.40;82.40;;;;;;5033529;28;20022;-83
2022/01/31 00:22:35;;;;;;;16.42;5.45;;;1.40;82.40;;;;;;5033377;28;20584;-83
2022/01/31 00:25:01;;;;;;;18.55;5.30;;;1.50;82.40;;;;;;5033443;28;20026;-83
2022/01/31 00:27:26;;;;;;;27.42;6.13;;;1.60;82.10;;;;;;5015475;28;20474;-83
2022/01/31 00:29:52;;;;;;;17.27;5.30;;;1.60;82.40;;;;;;5015558;28;20048;-83
2022/01/31 00:32:17;;;;;;;19.65;5.93;;;1.60;81.50;;;;;;5033295;28;20068;-82
2022/01/31 00:34:43;;;;;;;21.17;6.13;;;1.60;81.50;;;;;;5033231;28;20025;-82
2022/01/31 00:37:08;;;;;;;21.20;5.65;;;1.70;81.30;;;;;;5033195;28;20037;-83
2022/01/31 00:39:36;;;;;;;17.98;6.03;;;1.70;81.10;;;;;;5015484;28;20159;-82
2022/01/31 00:42:04;;;;;;;18.48;5.65;;;1.70;80.90;;;;;;5033324;28;20370;-83
2022/01/31 00:44:41;;;;;;;18.08;5.55;;;1.70;81.10;;;;;;5033098;28;20108;-82
2022/01/31 00:47:17;;;;;;;18.80;5.63;;;1.70;81.30;;;;;;5034134;28;20498;-82
2022/01/31 00:49:50;;;;;;;22.77;5.60;;;1.70;81.30;;;;;;5033629;28;20116;-82
2022/01/31 00:52:16;;;;;;;18.63;5.00;;;1.70;81.50;;;;;;5034385;28;20555;-81
2022/01/31 00:54:41;;;;;;;16.83;4.90;;;1.80;81.30;;;;;;5035067;28;20030;-82
2022/01/31 00:57:07;;;;;;;14.13;4.75;;;1.90;81.10;;;;;;5016878;28;20109;-82
2022/01/31 00:59:32;;;;;;;15.70;5.20;;;2.00;80.90;;;;;;5033131;28;20393;-82
2022/01/31 01:01:58;;;;;;;24.38;6.10;;;2.00;80.70;;;;;;5015569;28;20482;-82
2022/01/31 01:04:24;;;;;;;22.45;5.82;;;2.00;80.10;;;;;;5015928;28;20029;-81
2022/01/31 01:06:49;;;;;;;20.55;6.00;;;2.00;79.90;;;;;;5045257;28;20037;-80
2022/01/31 01:09:15;;;;;;;22.30;6.60;;;2.00;79.90;;;;;;5018168;28;20029;-81
2022/01/31 01:11:41;;;;;;;17.42;5.53;;;2.00;80.70;;;;;;5033360;28;20086;-80
2022/01/31 01:14:07;;;;;;;20.58;5.70;;;2.00;80.00;;;;;;5032848;28;20060;-80
2022/01/31 01:16:32;;;;;;;25.52;6.18;;;2.00;80.00;;;;;;5032804;28;20041;-80
2022/01/31 01:18:58;;;;;;;17.00;5.60;;;2.00;79.60;;;;;;5033166;28;20018;-81
2022/01/31 01:21:24;;;;;;;19.05;5.63;;;2.00;79.30;;;;;;5032989;28;20021;-81
2022/01/31 01:23:49;;;;;;;26.98;6.45;;;2.00;79.30;;;;;;5032704;28;20029;-81
2022/01/31 01:26:15;;;;;;;23.48;5.60;;;1.90;79.30;;;;;;5032727;28;20083;-82
2022/01/31 01:28:41;;;;;;;16.33;5.82;;;1.90;79.40;;;;;;5014912;28;20029;-81
2022/01/31 01:31:06;;;;;;;19.15;5.50;;;1.80;79.20;;;;;;5015517;28;20078;-82
2022/01/31 01:33:38;;;;;;;21.98;6.82;;;1.80;79.60;;;;;;5032815;28;20079;-81
2022/01/31 01:36:04;;;;;;;19.23;5.90;;;1.80;79.70;;;;;;5032930;28;20488;-82
2022/01/31 01:38:30;;;;;;;14.75;5.68;;;1.80;79.70;;;;;;5014948;28;20026;-82
2022/01/31 01:40:59;;;;;;;19.77;5.88;;;1.80;79.70;;;;;;5015138;28;20406;-82
2022/01/31 01:43:25;;;;;;;14.93;5.85;;;1.80;79.60;;;;;;5032860;28;20022;-81
2022/01/31 01:45:53;;;;;;;17.80;5.82;;;1.90;79.70;;;;;;5033956;28;20034;-81
2022/01/31 01:48:19;;;;;;;19.80;6.00;;;1.90;79.60;;;;;;5034879;28;20060;-82
2022/01/31 01:50:45;;;;;;;16.75;5.32;;;1.90;79.50;;;;;;5035146;28;20017;-82
2022/01/31 01:53:12;;;;;;;13.20;4.80;;;2.00;79.40;;;;;;5048901;28;20029;-82
2022/01/31 01:55:38;;;;;;;15.80;5.57;;;2.00;79.20;;;;;;5057363;28;20031;-81
2022/01/31 01:58:06;;;;;;;13.48;5.20;;;2.00;79.10;;;;;;5047266;28;20061;-81
2022/01/31 02:00:49;;;;;;;14.15;6.22;;;2.10;79.20;;;;;;5018680;28;20113;-82
2022/01/31 02:03:15;;;;;;;12.23;5.00;;;2.00;78.90;;;;;;5036299;28;20032;-82
2022/01/31 02:05:41;;;;;;;16.45;5.38;;;1.90;79.00;;;;;;5036166;28;20029;-82
2022/01/31 02:08:07;;;;;;;17.10;5.00;;;2.00;79.20;;;;;;5035808;28;20052;-82
2022/01/31 02:10:32;;;;;;;15.75;4.93;;;2.00;79.40;;;;;;5018433;28;20355;-83
2022/01/31 02:13:03;;;;;;;14.45;5.00;;;2.00;79.40;;;;;;5036007;28;20036;-84
2022/01/31 02:15:29;;;;;;;13.88;5.38;;;2.00;79.50;;;;;;5010215;28;20057;-83
2022/01/31 02:17:54;;;;;;;18.40;5.82;;;2.00;79.50;;;;;;5017096;28;20026;-82
2022/01/31 02:20:20;;;;;;;15.43;5.20;;;2.00;79.60;;;;;;4998663;28;20076;-84
2022/01/31 02:22:46;;;;;;;14.57;5.43;;;2.00;79.60;;;;;;5016003;28;20134;-83
2022/01/31 02:25:12;;;;;;;19.17;5.75;;;2.00;79.60;;;;;;5015851;28;20105;-82
2022/01/31 02:27:38;;;;;;;17.65;6.22;;;2.00;79.70;;;;;;5015859;28;20029;-82
2022/01/31 02:30:07;;;;;;;22.20;6.20;;;2.00;79.70;;;;;;5015733;28;20112;-82
2022/01/31 02:32:34;;;;;;;13.63;5.10;;;2.00;80.00;;;;;;5015608;28;20022;-82
2022/01/31 02:34:59;;;;;;;17.88;6.25;;;1.90;80.00;;;;;;5015643;28;20022;-83
2022/01/31 02:37:25;;;;;;;19.17;6.63;;;1.90;80.10;;;;;;5015624;28;20371;-82
2022/01/31 02:39:50;;;;;;;17.23;6.28;;;2.00;80.20;;;;;;4997958;28;20030;-83
2022/01/31 02:42:16;;;;;;;23.30;6.50;;;2.00;80.30;;;;;;5015548;28;20057;-83
2022/01/31 02:44:44;;;;;;;20.48;7.20;;;1.80;80.90;;;;;;5015574;28;20028;-82
2022/01/31 02:47:13;;;;;;;18.88;5.20;;;1.70;81.80;;;;;;5015565;28;20034;-83
2022/01/31 02:49:53;;;;;;;18.85;5.55;;;1.70;82.10;;;;;;5015327;28;20081;-82
2022/01/31 02:52:19;;;;;;;14.02;5.18;;;1.70;82.00;;;;;;5015791;28;20488;-83
2022/01/31 02:54:45;;;;;;;17.85;5.80;;;1.80;82.00;;;;;;5015150;28;20018;-81
2022/01/31 02:57:11;;;;;;;14.48;5.03;;;1.80;81.80;;;;;;4998338;28;20032;-82
2022/01/31 02:59:36;;;;;;;13.13;4.05;;;1.90;81.20;;;;;;5017502;28;20065;-79
2022/01/31 03:02:03;;;;;;;15.68;3.78;;;2.00;80.40;;;;;;5030216;28;20072;-82
2022/01/31 03:04:29;;;;;;;13.90;4.20;;;2.20;80.20;;;;;;4998303;28;20494;-82
2022/01/31 03:06:55;;;;;;;13.27;3.67;;;2.20;79.50;;;;;;5015545;28;20029;-83
2022/01/31 03:09:21;;;;;;;16.27;5.13;;;2.20;79.10;;;;;;5014633;28;20026;-81
2022/01/31 03:11:46;;;;;;;12.63;4.13;;;2.40;78.40;;;;;;5015035;28;20033;-82
2022/01/31 03:14:15;;;;;;;15.10;4.47;;;2.40;77.90;;;;;;5014948;28;20037;-82
2022/01/31 03:16:42;;;;;;;13.05;4.00;;;2.40;77.90;;;;;;5032690;28;20548;-79
2022/01/31 03:19:08;;;;;;;16.15;5.32;;;2.40;78.10;;;;;;5034554;28;20374;-81
2022/01/31 03:21:34;;;;;;;18.55;4.40;;;2.40;78.10;;;;;;5034690;28;20130;-78
2022/01/31 03:23:59;;;;;;;22.10;4.93;;;2.40;77.80;;;;;;5034630;28;20482;-79
2022/01/31 03:26:25;;;;;;;16.77;4.60;;;2.40;77.80;;;;;;5034520;28;20075;-78
2022/01/31 03:28:53;;;;;;;12.25;5.28;;;2.40;77.70;;;;;;5034388;28;20083;-78
2022/01/31 03:31:19;;;;;;;12.98;3.83;;;2.20;78.10;;;;;;5034369;28;20017;-78
2022/01/31 03:33:46;;;;;;;14.15;3.90;;;2.30;78.30;;;;;;5035105;28;20135;-79
2022/01/31 03:36:12;;;;;;;15.73;4.20;;;2.10;78.60;;;;;;5037467;28;20025;-79
2022/01/31 03:38:40;;;;;;;12.13;3.65;;;2.20;78.60;;;;;;5036298;28;20084;-81
2022/01/31 03:41:14;;;;;;;11.88;3.47;;;2.20;78.30;;;;;;5016501;28;20120;-79
2022/01/31 03:43:40;;;;;;;11.32;3.30;;;2.30;77.00;;;;;;5034330;28;20026;-83
2022/01/31 03:46:06;;;;;;;18.80;4.35;;;2.40;76.80;;;;;;5016561;28;20072;-83
2022/01/31 03:48:32;;;;;;;16.00;3.50;;;2.40;76.20;;;;;;5034299;28;20030;-84
2022/01/31 03:50:59;;;;;;;15.23;3.72;;;2.50;75.30;;;;;;5016482;28;20505;-83
2022/01/31 03:53:25;;;;;;;14.77;3.40;;;2.60;74.90;;;;;;5034298;28;20050;-83
2022/01/31 03:55:51;;;;;;;14.77;3.45;;;2.60;74.30;;;;;;5034476;28;20022;-83
2022/01/31 03:58:17;;;;;;;15.55;3.35;;;2.60;74.30;;;;;;5034313;28;20140;-82
2022/01/31 04:00:42;;;;;;;14.15;3.97;;;2.60;73.80;;;;;;5034726;28;20157;-81
2022/01/31 04:03:09;;;;;;;18.17;3.50;;;2.50;73.80;;;;;;5034093;28;20092;-82
2022/01/31 04:05:37;;;;;;;15.10;3.65;;;2.50;73.90;;;;;;5034046;28;20105;-81
2022/01/31 04:08:03;;;;;;;14.32;4.15;;;2.50;73.60;;;;;;5033742;28;20034;-82
2022/01/31 04:10:29;;;;;;;16.30;3.60;;;2.50;73.80;;;;;;5016252;28;20568;-81
2022/01/31 04:12:54;;;;;;;13.35;3.72;;;2.50;73.90;;;;;;5033988;28;20108;-82
2022/01/31 04:15:20;;;;;;;12.90;3.08;;;2.50;73.70;;;;;;5033686;28;20051;-81
2022/01/31 04:17:45;;;;;;;17.88;3.30;;;2.60;73.50;;;;;;5015835;28;20120;-81
2022/01/31 04:20:12;;;;;;;14.15;3.33;;;2.60;73.10;;;;;;5032931;28;20030;-82
2022/01/31 04:22:45;;;;;;;13.95;3.22;;;2.70;73.90;;;;;;5033706;28;20021;-83
2022/01/31 04:25:27;;;;;;;22.45;3.70;;;2.70;72.90;;;;;;5033896;28;20072;-83
2022/01/31 04:28:01;;;;;;;15.75;3.78;;;2.70;72.70;;;;;;5033424;28;20041;-81
2022/01/31 04:30:37;;;;;;;15.77;3.38;;;2.80;72.60;;;;;;5033462;28;20071;-82
2022/01/31 04:33:02;;;;;;;19.38;3.13;;;2.90;72.50;;;;;;5015790;28;20473;-83
2022/01/31 04:35:28;;;;;;;7.30;2.53;;;2.90;72.30;;;;;;5033288;28;20029;-82
2022/01/31 04:37:54;;;;;;;8.32;2.75;;;2.80;72.60;;;;;;5033190;28;20029;-83
2022/01/31 04:40:19;;;;;;;14.40;3.60;;;2.80;72.30;;;;;;5033335;28;20028;-83
2022/01/31 04:42:46;;;;;;;8.43;2.88;;;2.90;72.00;;;;;;5033146;28;20064;-83
2022/01/31 04:45:12;;;;;;;19.60;3.53;;;2.90;71.60;;;;;;5033176;28;20014;-83
2022/01/31 04:47:37;;;;;;;15.13;3.08;;;3.00;71.50;;;;;;5015216;28;20028;-84
2022/01/31 04:50:04;;;;;;;12.00;3.58;;;3.00;71.00;;;;;;5015302;28;20029;-83
2022/01/31 04:52:30;;;;;;;10.45;2.90;;;3.00;70.80;;;;;;5015401;28;20018;-81
2022/01/31 04:54:56;;;;;;;15.80;4.57;;;3.00;70.80;;;;;;5033105;28;20036;-83
2022/01/31 04:57:21;;;;;;;12.25;3.10;;;3.00;70.70;;;;;;5033083;28;20022;-84
2022/01/31 04:59:48;;;;;;;18.70;4.25;;;3.10;70.70;;;;;;5033018;28;20032;-81
2022/01/31 05:02:14;;;;;;;11.57;2.55;;;3.10;70.60;;;;;;5032999;28;20462;-82
2022/01/31 05:04:40;;;;;;;15.65;3.10;;;3.20;70.30;;;;;;5032852;28;20112;-79
2022/01/31 05:07:05;;;;;;;9.27;2.53;;;3.20;70.50;;;;;;5032824;28;20032;-81
2022/01/31 05:09:31;;;;;;;9.57;2.90;;;3.20;70.70;;;;;;5032940;28;20022;-83
2022/01/31 05:11:57;;;;;;;6.00;2.83;;;3.20;70.70;;;;;;5032895;28;20096;-82
2022/01/31 05:14:22;;;;;;;14.98;3.08;;;3.30;70.70;;;;;;5032906;28;20029;-82
2022/01/31 05:16:48;;;;;;;11.00;2.47;;;3.30;70.60;;;;;;5032578;28;20041;-80
2022/01/31 05:19:13;;;;;;;16.13;3.67;;;3.40;70.20;;;;;;5032821;28;20516;-82
2022/01/31 05:21:39;;;;;;;12.32;2.83;;;3.40;70.40;;;;;;5032727;28;20025;-82
2022/01/31 05:24:06;;;;;;;12.60;3.67;;;3.40;70.70;;;;;;5032763;28;20061;-81
2022/01/31 05:26:33;;;;;;;12.52;3.10;;;3.40;70.80;;;;;;5032576;28;20045;-82
2022/01/31 05:28:59;;;;;;;13.13;2.83;;;3.50;71.00;;;;;;5032505;28;20033;-82
2022/01/31 05:31:24;;;;;;;12.43;2.65;;;3.50;70.90;;;;;;5033863;28;20492;-79
2022/01/31 05:33:50;;;;;;;13.80;3.03;;;3.50;71.00;;;;;;5036580;28;20025;-81
2022/01/31 05:36:16;;;;;;;12.93;3.03;;;3.50;71.10;;;;;;5036572;28;20108;-82
2022/01/31 05:38:43;;;;;;;9.27;3.15;;;3.50;71.20;;;;;;5036358;28;20025;-83
2022/01/31 05:41:16;;;;;;;14.00;3.17;;;3.50;71.60;;;;;;5036515;28;20473;-81
2022/01/31 05:43:42;;;;;;;11.68;3.30;;;3.50;71.50;;;;;;5036303;28;20481;-81
2022/01/31 05:46:07;;;;;;;15.43;3.25;;;3.60;71.40;;;;;;5036407;28;20064;-81
2022/01/31 05:48:33;;;;;;;14.32;3.50;;;3.60;71.40;;;;;;5018205;28;20049;-82
2022/01/31 05:50:59;;;;;;;13.65;3.08;;;3.60;71.50;;;;;;5036005;28;20092;-82
2022/01/31 05:53:25;;;;;;;13.65;3.28;;;3.70;71.60;;;;;;5036055;28;20056;-82
2022/01/31 05:55:51;;;;;;;12.38;3.30;;;3.70;71.60;;;;;;5035973;28;20049;-81
2022/01/31 05:58:18;;;;;;;12.73;2.67;;;3.60;71.80;;;;;;5036038;28;20500;-83
2022/01/31 06:00:44;;;;;;;9.18;2.58;;;3.70;72.00;;;;;;5036013;28;20047;-80
2022/01/31 06:03:10;;;;;;;8.85;2.47;;;3.70;72.20;;;;;;5035942;28;20465;-81
2022/01/31 06:05:35;;;;;;;11.93;3.28;;;3.70;72.30;;;;;;5035994;28;20474;-80
2022/01/31 06:08:01;;;;;;;15.48;3.38;;;3.70;72.60;;;;;;5036224;28;20128;-81
2022/01/31 06:10:26;;;;;;;12.50;3.03;;;3.70;72.70;;;;;;5036248;28;20101;-81
2022/01/31 06:12:53;;;;;;;6.72;2.75;;;3.80;72.70;;;;;;5035533;28;20049;-81
2022/01/31 06:15:19;;;;;;;9.05;2.95;;;3.80;72.90;;;;;;5035386;28;20095;-81
2022/01/31 06:17:44;;;;;;;10.70;2.83;;;3.90;72.90;;;;;;5035473;28;20033;-84
2022/01/31 06:20:10;;;;;;;11.73;3.58;;;3.90;73.30;;;;;;5035848;28;20381;-83
2022/01/31 06:22:53;;;;;;;12.88;3.38;;;3.90;73.60;;;;;;5035699;28;20083;-81
2022/01/31 06:25:19;;;;;;;16.42;3.58;;;3.90;74.10;;;;;;5036059;28;20339;-80
2022/01/31 06:27:46;;;;;;;11.35;3.40;;;3.90;74.30;;;;;;5035205;28;20038;-81
2022/01/31 06:30:12;;;;;;;11.15;4.15;;;3.90;74.70;;;;;;5017208;28;20025;-82
2022/01/31 06:32:38;;;;;;;13.35;3.90;;;3.90;75.10;;;;;;5035145;28;20370;-80
2022/01/31 06:35:05;;;;;;;15.60;3.28;;;3.90;75.20;;;;;;5035799;28;20026;-82
2022/01/31 06:37:31;;;;;;;7.80;3.28;;;4.00;75.30;;;;;;5035186;28;20028;-81
2022/01/31 06:39:56;;;;;;;13.90;4.30;;;3.90;75.40;;;;;;5035521;28;20440;-81
2022/01/31 06:42:22;;;;;;;8.48;3.10;;;4.00;75.70;;;;;;5034600;28;20382;-80
2022/01/31 06:44:47;;;;;;;11.00;3.47;;;4.00;76.10;;;;;;5034911;28;20087;-83
2022/01/31 06:47:13;;;;;;;9.45;3.33;;;4.00;76.40;;;;;;5035003;28;20029;-82
2022/01/31 06:49:38;;;;;;;12.68;3.80;;;4.00;76.70;;;;;;5035126;28;20365;-84
2022/01/31 06:52:05;;;;;;;11.32;3.88;;;4.00;76.90;;;;;;5035678;28;20109;-84
2022/01/31 06:54:31;;;;;;;7.47;3.05;;;3.90;77.60;;;;;;5035349;28;20071;-83
2022/01/31 06:56:58;;;;;;;15.93;3.85;;;3.90;77.80;;;;;;5017494;28;20363;-82
2022/01/31 06:59:23;;;;;;;9.90;3.42;;;3.90;78.10;;;;;;5034612;28;20024;-82
2022/01/31 07:01:49;;;;;;;10.65;3.53;;;3.90;78.60;;;;;;5034802;28;20026;-81
2022/01/31 07:04:15;;;;;;;9.48;3.55;;;3.90;79.40;;;;;;5034741;28;20393;-83
2022/01/31 07:06:41;;;;;;;8.93;4.35;;;3.90;80.60;;;;;;5034852;28;20064;-80
2022/01/31 07:09:06;;;;;;;12.63;3.35;;;3.80;80.50;;;;;;5035259;28;20435;-82
2022/01/31 07:11:37;;;;;;;9.13;3.80;;;3.70;81.00;;;;;;5034757;28;20042;-81
2022/01/31 07:14:29;;;;;;;9.13;3.65;;;3.60;82.20;;;;;;5016797;28;20026;-82
2022/01/31 07:16:51;;;;;;;13.90;4.55;;;3.50;83.10;;;;;;5033900;28;20052;-82
2022/01/31 07:19:19;;;;;;;9.60;3.78;;;3.50;83.70;;;;;;5016841;28;20401;-83
2022/01/31 07:21:49;;;;;;;7.97;3.80;;;3.40;84.30;;;;;;5034126;28;20041;-83
2022/01/31 07:26:55;;;;;;;9.82;3.78;;;3.40;85.00;;;;;;5034396;28;20092;-82
2022/01/31 07:29:21;;;;;;;10.85;3.53;;;3.40;84.80;;;;;;5034209;28;20038;-82
2022/01/31 07:31:49;;;;;;;11.32;3.72;;;3.40;84.50;;;;;;5033777;28;20378;-82
2022/01/31 07:34:15;;;;;;;7.63;3.13;;;3.50;84.50;;;;;;5034020;28;20108;-82
2022/01/31 07:36:42;;;;;;;11.98;3.55;;;3.50;84.40;;;;;;5034392;28;20068;-82
2022/01/31 07:39:07;;;;;;;7.93;3.20;;;3.60;83.60;;;;;;5034308;28;20013;-82
2022/01/31 07:41:33;;;;;;;8.18;3.40;;;3.50;83.70;;;;;;5016515;28;20036;-83
2022/01/31 07:44:00;;;;;;;9.52;3.33;;;3.60;83.10;;;;;;5034454;28;20083;-84
2022/01/31 07:46:26;;;;;;;10.63;3.40;;;3.60;82.90;;;;;;5034184;28;20030;-84
2022/01/31 07:48:53;;;;;;;6.15;2.38;;;3.60;83.30;;;;;;5015985;28;20040;-83
2022/01/31 07:51:20;;;;;;;4.95;2.50;;;3.70;82.90;;;;;;5034266;28;20022;-85
2022/01/31 07:53:46;;;;;;;7.80;2.30;;;3.70;83.20;;;;;;5017507;28;20029;-83
2022/01/31 07:56:14;;;;;;;6.72;2.35;;;3.60;83.60;;;;;;5033898;28;20029;-81
2022/01/31 07:58:40;;;;;;;5.95;2.10;;;3.60;84.00;;;;;;5033904;28;20386;-83
2022/01/31 08:01:06;;;;;;;6.05;1.80;;;3.50;84.40;;;;;;5033969;28;20028;-82
2022/01/31 08:03:32;;;;;;;7.15;2.47;;;3.50;84.40;;;;;;5016038;28;20061;-82
2022/01/31 08:05:58;;;;;;;5.00;2.22;;;3.50;85.10;;;;;;5031369;28;20048;-79
2022/01/31 08:08:29;;;;;;;7.47;1.83;;;3.60;85.40;;;;;;5046445;28;20041;-81
2022/01/31 08:10:55;;;;;;;2.42;1.52;;;3.60;85.50;;;;;;5025030;28;20018;-80
2022/01/31 08:13:21;;;;;;;3.50;1.98;;;3.60;85.40;;;;;;5033396;28;20474;-81
2022/01/31 08:15:49;;;;;;;2.92;1.42;;;3.70;85.70;;;;;;5033111;28;20119;-86
2022/01/31 08:18:15;;;;;;;2.08;1.38;;;3.90;84.80;;;;;;5016240;28;20540;-80
2022/01/31 08:20:41;;;;;;;2.85;1.33;;;3.80;83.70;;;;;;5015958;28;20017;-83
2022/01/31 08:23:08;;;;;;;3.83;1.40;;;3.90;84.70;;;;;;5016506;28;20057;-81
2022/01/31 08:25:36;;;;;;;4.10;2.17;;;3.90;84.10;;;;;;5033603;28;20455;-87
2022/01/31 08:28:09;;;;;;;3.45;1.40;;;4.00;85.90;;;;;;5034310;28;20030;-85
2022/01/31 08:30:44;;;;;;;5.30;1.08;;;4.00;85.20;;;;;;5016725;28;20021;-84
2022/01/31 08:33:24;;;;;;;2.13;1.00;;;4.00;84.50;;;;;;5030396;28;20029;-85
2022/01/31 08:35:50;;;;;;;3.58;1.50;;;4.00;84.10;;;;;;5033699;28;20318;-92
2022/01/31 08:38:18;;;;;;;6.60;1.55;;;4.00;85.40;;;;;;5033857;28;20025;-88
2022/01/31 08:40:44;;;;;;;3.47;1.30;;;3.90;85.00;;;;;;5016159;28;20473;-90
2022/01/31 08:43:10;;;;;;;6.03;1.80;;;3.90;85.40;;;;;;5018069;28;20033;-84
2022/01/31 08:45:36;;;;;;;3.70;1.70;;;3.90;85.80;;;;;;5034203;28;20135;-83
2022/01/31 08:48:03;;;;;;;2.55;1.35;;;3.90;85.90;;;;;;5036669;28;20033;-86
2022/01/31 08:50:29;;;;;;;4.85;1.50;;;3.90;85.90;;;;;;5036842;28;20079;-87
2022/01/31 08:52:54;;;;;;;5.28;1.27;;;3.80;86.30;;;;;;5037079;28;20049;-88
2022/01/31 08:55:21;;;;;;;3.58;1.30;;;3.90;86.20;;;;;;5025309;28;20083;-86
2022/01/31 08:57:52;;;;;;;2.85;1.23;;;3.90;87.10;;;;;;5033833;28;20028;-80
2022/01/31 09:00:18;;;;;;;2.60;1.10;;;4.00;86.80;;;;;;5032893;28;20359;-81
2022/01/31 09:02:52;;;;;;;3.70;1.38;;;3.90;85.80;;;;;;5014916;28;20025;-84
2022/01/31 09:05:18;;;;;;;4.22;0.80;;;3.70;86.30;;;;;;5033050;28;20390;-83
2022/01/31 09:07:44;;;;;;;3.83;1.55;;;3.50;87.20;;;;;;5038944;28;20041;-82
2022/01/31 09:10:09;;;;;;;3.50;1.20;;;3.50;88.20;;;;;;5039189;28;20112;-82
2022/01/31 09:12:36;;;;;;;2.00;0.77;;;3.40;88.20;;;;;;5021234;28;20104;-82
2022/01/31 09:15:05;;;;;;;3.05;0.90;;;3.30;88.70;;;;;;5038739;28;20060;-81
2022/01/31 09:17:30;;;;;;;1.08;0.80;;;3.30;89.70;;;;;;5038953;28;20026;-82
2022/01/31 09:19:56;;;;;;;0.70;0.70;;;3.30;89.70;;;;;;5039249;28;20389;-82
2022/01/31 09:22:21;;;;;;;2.22;0.77;;;3.50;89.50;;;;;;5039144;28;20094;-81
2022/01/31 09:24:50;;;;;;;3.15;1.33;;;3.40;89.00;;;;;;5038962;28;20108;-83
2022/01/31 09:27:15;;;;;;;1.23;0.50;;;3.30;88.80;;;;;;5020987;28;20367;-82
2022/01/31 09:29:41;;;;;;;0.28;0.28;;;3.00;87.60;;;;;;5039112;28;20036;-81
2022/01/31 09:32:07;;;;;;;1.33;0.60;;;2.80;87.60;;;;;;5021111;28;20144;-82
2022/01/31 09:34:33;;;;;;;2.13;0.68;;;2.50;90.20;;;;;;5040221;28;20171;-83
2022/01/31 09:37:00;;;;;;;1.63;0.70;;;2.40;91.00;;;;;;5039257;28;20489;-83
2022/01/31 09:39:30;;;;;;;1.33;0.77;;;2.50;91.00;;;;;;5039097;28;20037;-82
2022/01/31 09:41:57;;;;;;;1.67;0.80;;;2.50;90.90;;;;;;5038942;28;20017;-81
2022/01/31 09:44:43;;;;;;;0.50;0.50;;;2.50;91.10;;;;;;5038698;28;20029;-81
2022/01/31 09:47:21;;;;;;;0.90;0.60;;;2.50;91.20;;;;;;5038836;28;20100;-82
2022/01/31 09:49:47;;;;;;;0.80;0.55;;;2.50;91.10;;;;;;5038642;28;20033;-82
2022/01/31 09:52:14;;;;;;;8.25;4.10;;;2.40;91.10;;;;;;5038777;28;20108;-81
2022/01/31 09:54:40;;;;;;;4.75;1.55;;;2.30;91.80;;;;;;5038814;28;20034;-82
2022/01/31 09:57:06;;;;;;;2.92;1.40;;;2.40;91.90;;;;;;5038812;28;20072;-81
2022/01/31 09:59:31;;;;;;;1.73;1.02;;;2.40;92.00;;;;;;5038736;28;20026;-80
2022/01/31 10:01:58;;;;;;;0.60;0.52;;;2.30;92.10;;;;;;5038788;28;20101;-81
2022/01/31 10:04:29;;;;;;;0.70;0.60;;;2.30;91.70;;;;;;5038839;28;20021;-81
2022/01/31 10:06:57;;;;;;;1.98;0.70;;;2.40;91.50;;;;;;5038897;28;20017;-81
2022/01/31 10:09:25;;;;;;;1.95;0.70;;;2.90;89.90;;;;;;5038903;28;20438;-82
2022/01/31 10:12:07;;;;;;;1.77;0.60;;;3.20;86.60;;;;;;5039809;28;20037;-82
2022/01/31 10:17:29;;;;;;;0.77;0.65;;;4.00;83.20;;;;;;5038457;28;20618;-79
2022/01/31 10:19:58;;;;;;;1.73;0.70;;;4.30;81.40;;;;;;5036125;28;20049;-82
2022/01/31 10:22:26;;;;;;;0.63;0.50;;;4.50;81.50;;;;;;5036008;28;20040;-81
2022/01/31 10:24:54;;;;;;;4.18;0.65;;;4.40;81.00;;;;;;5017390;28;20386;-81
2022/01/31 10:27:34;;;;;;;2.65;0.73;;;4.60;80.70;;;;;;5035409;28;20068;-83
2022/01/31 10:30:11;;;;;;;2.08;0.60;;;4.90;80.10;;;;;;5035429;28;20033;-80
2022/01/31 10:32:40;;;;;;;3.28;1.00;;;5.00;79.40;;;;;;5035478;28;20018;-82
2022/01/31 10:35:09;;;;;;;1.88;0.95;;;5.00;80.40;;;;;;5036294;28;20101;-82
2022/01/31 10:37:36;;;;;;;1.75;0.90;;;5.20;79.70;;;;;;5017734;28;20382;-81
2022/01/31 10:45:48;;;;;;;0.60;0.60;;;4.60;81.50;;;;;;5035594;28;20103;-81
2022/01/31 10:51:38;;;;;;;3.55;1.20;;;4.00;83.80;;;;;;5045673;28;20032;-82
2022/01/31 10:56:23;;;;;;;2.90;1.30;;;3.70;85.00;;;;;;5035211;28;20068;-83
2022/01/31 10:58:57;;;;;;;2.53;1.17;;;3.80;85.90;;;;;;5034817;28;20021;-80
2022/01/31 11:01:24;;;;;;;3.67;1.55;;;3.80;84.50;;;;;;5034952;28;20018;-83
2022/01/31 11:03:50;;;;;;;3.30;1.75;;;3.70;84.10;;;;;;5034592;28;20048;-81
2022/01/31 11:06:16;;;;;;;4.45;1.55;;;4.10;82.60;;;;;;5034303;28;20021;-81
2022/01/31 11:08:42;;;;;;;5.35;1.58;;;4.60;80.70;;;;;;5034035;28;20120;-81
2022/01/31 11:11:08;;;;;;;6.28;1.70;;;5.00;79.30;;;;;;5016328;28;20124;-81
2022/01/31 11:13:35;;;;;;;4.18;1.23;;;5.10;77.90;;;;;;5034166;28;20030;-81
2022/01/31 11:16:01;;;;;;;4.93;1.17;;;5.20;77.50;;;;;;5034051;28;20041;-81
2022/01/31 11:18:32;;;;;;;3.90;1.27;;;5.30;78.40;;;;;;5034562;28;20064;-80
2022/01/31 11:21:08;;;;;;;3.83;1.33;;;5.30;77.30;;;;;;5034777;28;20097;-82
2022/01/31 11:23:40;;;;;;;7.70;1.88;;;4.90;79.10;;;;;;5034392;28;20474;-82
2022/01/31 11:26:08;;;;;;;4.80;1.65;;;4.60;80.10;;;;;;5034082;28;20092;-81
2022/01/31 11:28:35;;;;;;;2.10;1.20;;;4.30;80.60;;;;;;5033547;28;20037;-82
2022/01/31 11:31:03;;;;;;;5.22;1.38;;;4.10;81.20;;;;;;5034025;28;20467;-82
2022/01/31 11:33:30;;;;;;;5.97;1.42;;;4.10;81.60;;;;;;5034082;28;20021;-82
2022/01/31 11:35:58;;;;;;;6.50;1.63;;;4.10;82.30;;;;;;5016223;28;20108;-81
2022/01/31 11:38:23;;;;;;;5.18;1.55;;;4.00;82.20;;;;;;5034029;28;20040;-81
2022/01/31 11:40:49;;;;;;;5.68;1.63;;;4.20;82.00;;;;;;5015980;28;20386;-80
2022/01/31 11:43:16;;;;;;;6.40;1.63;;;4.20;82.20;;;;;;5033638;28;20048;-82
2022/01/31 11:45:44;;;;;;;4.68;1.45;;;4.30;82.10;;;;;;5033627;28;20018;-81
2022/01/31 11:48:22;;;;;;;6.43;2.80;;;4.10;82.40;;;;;;5015615;28;20418;-81
2022/01/31 11:50:53;;;;;;;2.53;1.42;;;3.90;81.70;;;;;;5033174;28;20068;-81
2022/01/31 11:53:33;;;;;;;10.07;2.40;;;3.90;82.10;;;;;;5015497;28;20080;-80
2022/01/31 11:56:06;;;;;;;4.13;1.90;;;3.90;82.10;;;;;;5033346;28;20164;-81
2022/01/31 11:58:36;;;;;;;4.53;1.40;;;3.80;82.40;;;;;;5034608;28;20083;-81
2022/01/31 12:01:02;;;;;;;6.50;1.40;;;3.90;82.30;;;;;;5017245;28;20025;-81
2022/01/31 12:03:30;;;;;;;6.20;1.30;;;4.00;81.00;;;;;;5017428;28;20092;-81
2022/01/31 12:05:55;;;;;;;4.05;1.55;;;4.30;81.20;;;;;;5034668;28;20028;-81
2022/01/31 12:08:33;;;;;;;3.60;1.40;;;4.40;80.70;;;;;;5033851;28;20030;-80
2022/01/31 12:11:07;;;;;;;3.92;1.45;;;4.50;81.10;;;;;;5034119;28;20053;-81
2022/01/31 12:13:47;;;;;;;3.80;1.30;;;4.40;80.10;;;;;;5033712;28;20528;-80
2022/01/31 12:16:45;;;;;;;7.07;1.52;;;4.40;79.80;;;;;;5033880;28;20041;-81
2022/01/31 12:22:08;;;;;;;4.57;1.65;;;4.60;78.20;;;;;;5045815;28;20025;-80
2022/01/31 12:24:46;;;;;;;3.08;1.40;;;4.40;77.00;;;;;;5033352;28;20025;-80
2022/01/31 12:27:18;;;;;;;3.92;1.10;;;4.30;75.70;;;;;;5033189;28;20034;-80
2022/01/31 12:29:57;;;;;;;4.18;0.95;;;4.10;75.40;;;;;;5033800;28;20378;-80
2022/01/31 12:32:36;;;;;;;5.50;1.15;;;4.00;75.30;;;;;;5036898;28;20053;-79
2022/01/31 12:35:37;;;;;;;4.85;1.33;;;3.80;77.90;;;;;;5033079;28;20053;-81
2022/01/31 12:38:05;;;;;;;10.13;1.50;;;3.60;79.80;;;;;;5033115;28;20066;-79
2022/01/31 12:40:40;;;;;;;8.27;1.73;;;3.30;81.60;;;;;;5032023;28;20029;-81
2022/01/31 12:45:36;;;;;;;5.40;1.25;;;3.50;82.70;;;;;;5032695;28;20528;-81
2022/01/31 12:48:19;;;;;;;4.70;1.50;;;3.40;81.30;;;;;;5014949;28;20042;-80
2022/01/31 12:50:51;;;;;;;3.40;1.10;;;3.50;82.90;;;;;;5015411;28;20462;-81
2022/01/31 12:53:40;;;;;;;4.45;1.20;;;3.50;82.30;;;;;;5015303;28;20029;-81
2022/01/31 12:56:19;;;;;;;3.25;1.40;;;3.50;81.90;;;;;;5015575;28;20024;-79
2022/01/31 12:59:01;;;;;;;6.68;1.42;;;3.40;82.30;;;;;;5031368;28;20497;-83
2022/01/31 13:01:30;;;;;;;6.13;1.23;;;3.50;81.60;;;;;;5032507;28;20022;-78
2022/01/31 13:04:06;;;;;;;3.92;1.30;;;3.60;81.10;;;;;;5032534;28;20083;-75
2022/01/31 13:06:41;;;;;;;8.68;1.90;;;3.70;81.20;;;;;;5032356;28;20021;-77
2022/01/31 13:09:21;;;;;;;9.23;2.17;;;3.70;81.00;;;;;;5032431;28;20044;-78
2022/01/31 13:12:18;;;;;;;7.75;1.30;;;3.60;80.60;;;;;;5032425;28;20067;-78
2022/01/31 13:14:49;;;;;;;7.40;1.95;;;3.50;80.90;;;;;;5030642;28;20065;-78
2022/01/31 13:17:24;;;;;;;5.88;1.30;;;3.50;81.70;;;;;;5032042;28;20433;-77
2022/01/31 13:19:53;;;;;;;4.72;1.52;;;3.40;81.20;;;;;;5032117;28;20025;-77